Flight Track Log - Related Links

Times and Time Zones

All times are in EDT time to prevent confusion due to time zone crossing. See the UAL685 flight status page for this flight to view local times or setup timezone preferences in your user account.

Time Position Orientation Groundspeed Altitude Reporting Facility
EDT Latitude Longitude Course Direction KTS MPH feet Rate Location/Type
Sat 19:17:07 42.0333 -87.9667 261° West 223 257 2,800  Level Chicago TRACON
Sat 19:18:07 42.1000 -88.0333 323° Northwest 263 303 4,900 1,294 Climbing Chicago TRACON
Sat 19:18:49 42.1311 -88.0586 329° Northwest 271 312 5,000 635 Climbing Chicago Center
Sat 19:19:00 41.9128 -88.4995 261° West  Level FlightAware Approximate
Sat 19:19:51 42.1633 -88.1581 294° West 289 333 6,000  Level Chicago Center
Sat 19:20:00 41.8951 -88.6505 261° West  Level FlightAware Approximate
Sat 19:20:52 42.1850 -88.2836 283° West 304 350 9,400  Level Chicago Center
Sat 19:21:00 41.8775 -88.8016 261° West  Level FlightAware Approximate
Sat 19:21:53 42.1603 -88.3886 252° West 300 345 11,800  Level Chicago Center
Sat 19:22:00 41.8602 -88.9527 261° West  Level FlightAware Approximate
Sat 19:22:55 42.1128 -88.5000 240° Southwest 336 387 13,200  Level Chicago Center
Sat 19:23:56 42.0608 -88.6175 239° Southwest 362 417 15,600 2,195 Climbing Chicago Center
Sat 19:24:58 42.0092 -88.7436 241° Southwest 381 438 17,700 1,902 Climbing Chicago Center
Sat 19:25:59 41.9556 -88.8669 240° Southwest 386 444 19,500 1,805 Climbing Chicago Center
Sat 19:27:01 41.9097 -89.0350 250° West 417 480 21,400 1,659 Climbing Chicago Center
Sat 19:28:02 41.8950 -89.1889 263° West 421 484 22,900 1,475 Climbing Chicago Center
Sat 19:29:03 41.8808 -89.3506 263° West 434 499 24,400 1,366 Climbing Chicago Center
Sat 19:30:05 41.8739 -89.5125 267° West 439 505 25,700 1,317 Climbing Chicago Center
Sat 19:31:06 41.8675 -89.6778 267° West 444 511 27,100 1,366 Climbing Chicago Center
Sat 19:32:08 41.8664 -89.8453 270° West 451 519 28,500 1,317 Climbing Chicago Center
Sat 19:33:09 41.8639 -90.0417 269° West 462 532 29,800 1,279 Climbing Chicago Center
Sat 19:34:10 41.8608 -90.2150 269° West 467 537 31,100 1,268 Climbing Chicago Center
Sat 19:35:12 41.8556 -90.3881 268° West 468 539 32,400 1,171 Climbing Chicago Center
Sat 19:36:13 41.8508 -90.5597 268° West 466 536 33,500 780 Climbing Chicago Center
Sat 19:37:15 41.8439 -90.7381 267° West 479 551 34,000 244 Climbing Chicago Center
Sat 19:38:16 41.8389 -90.9111 268° West 470 541 34,000  Level Chicago Center
Sat 19:40:19 41.8278 -91.2892 268° West 464 534 34,000  Level Chicago Center
Sat 19:41:20 41.8217 -91.4606 267° West 462 532 34,000  Level Chicago Center
Sat 19:42:22 41.8164 -91.6314 268° West 461 531 34,000  Level Chicago Center
Sat 19:43:23 41.8100 -91.8053 267° West 465 535 34,000  Level Chicago Center
Sat 19:44:25 41.8039 -91.9747 267° West 461 531 34,000  Level Chicago Center
Sat 19:45:26 41.7969 -92.1456 267° West 460 529 34,000  Level Chicago Center
Sat 19:46:28 41.7897 -92.3172 267° West 463 533 34,000  Level Chicago Center
Sat 19:47:29 41.7819 -92.4867 267° West 460 529 34,000  Level Chicago Center
Sat 19:48:30 41.7739 -92.6911 267° West 461 531 34,000  Level Chicago Center
Sat 19:49:38 41.7650 -92.8606 266° West 460 529 34,000  Level Minneapolis Center
Sat 19:50:39 41.7575 -93.0292 267° West 459 528 34,000  Level Minneapolis Center
Sat 19:51:40 41.7478 -93.2336 266° West 462 532 34,000  Level Minneapolis Center
Sat 19:52:41 41.7378 -93.4039 266° West 463 533 34,000  Level Minneapolis Center
Sat 19:53:43 41.7297 -93.5722 266° West 460 529 34,000  Level Minneapolis Center
Sat 19:54:44 41.7208 -93.7411 266° West 461 531 34,000  Level Minneapolis Center
Sat 19:56:46 41.7011 -94.0908 266° West 461 531 34,000  Level Minneapolis Center
Sat 19:59:00 41.6892 -94.2842 265° West  Level FlightAware Approximate
Sat 19:59:50 41.6714 -94.6006 265° West 458 527 34,000  Level Minneapolis Center
Sat 20:00:51 41.6600 -94.7694 265° West 457 526 34,000  Level Minneapolis Center
Sat 20:01:52 41.6492 -94.9383 265° West 457 526 34,000  Level Minneapolis Center
Sat 20:02:53 41.6369 -95.1378 265° West 452 520 34,000  Level Minneapolis Center
Sat 20:03:54 41.6242 -95.3056 264° West 454 522 34,000  Level Minneapolis Center
Sat 20:04:56 41.6142 -95.4722 265° West 452 520 34,000  Level Minneapolis Center
Sat 20:05:57 41.6014 -95.6392 264° West 453 521 34,000  Level Minneapolis Center
Sat 20:06:58 41.5903 -95.7969 265° West 452 520 34,000  Level Minneapolis Center
Sat 20:07:59 41.5811 -95.9303 265° West 451 519 34,000  Level Minneapolis Center
Sat 20:09:00 41.5658 -96.1297 264° West 450 518 34,000  Level Minneapolis Center
Sat 20:10:02 41.5508 -96.3294 264° West 450 518 34,000  Level Minneapolis Center
Sat 20:11:03 41.5386 -96.4936 264° West 447 514 34,000  Level Minneapolis Center
Sat 20:12:04 41.5253 -96.6572 264° West 449 517 34,000  Level Minneapolis Center
Sat 20:13:05 41.5106 -96.8225 263° West 450 518 34,000  Level Minneapolis Center
Sat 20:14:06 41.4978 -96.9875 264° West 449 517 34,000  Level Minneapolis Center
Sat 20:15:08 41.4828 -97.1525 263° West 449 517 34,000  Level Minneapolis Center
Sat 20:16:09 41.4692 -97.3169 264° West 448 516 34,000  Level Minneapolis Center
Sat 20:17:22 41.4525 -97.5128 264° West 446 513 34,000  Level Minneapolis Center
Sat 20:18:24 41.4386 -97.6761 264° West 444 511 34,000  Level Minneapolis Center
Sat 20:19:25 41.4225 -97.8389 263° West 444 511 34,000  Level Minneapolis Center
Sat 20:20:26 41.4058 -98.0325 264° West 440 506 34,000  Level Minneapolis Center
Sat 20:21:28 41.3903 -98.1969 263° West 437 503 34,000  Level Minneapolis Center
Sat 20:22:29 41.3753 -98.3569 263° West 437 503 34,000  Level Minneapolis Center
Sat 20:23:30 41.3664 -98.5150 266° West 438 504 34,000  Level Minneapolis Center
Sat 20:24:31 41.3642 -98.6772 269° West 439 505 34,000  Level Minneapolis Center
Sat 20:25:33 41.3578 -98.8392 267° West 439 505 34,000  Level Minneapolis Center
Sat 20:25:51 41.3533 -98.9022 265° West 439 505 34,000  Level Denver Center
Sat 20:26:53 41.3458 -99.0625 266° West 440 506 34,000  Level Denver Center
Sat 20:27:54 41.3375 -99.2228 266° West 439 505 34,000  Level Denver Center
Sat 20:28:56 41.3297 -99.3858 266° West 442 509 34,000  Level Denver Center
Sat 20:29:57 41.3208 -99.5539 266° West 441 507 34,000  Level Denver Center
Sat 20:30:58 41.3117 -99.7369 266° West 444 511 34,000  Level Denver Center
Sat 20:32:00 41.3031 -99.8931 266° West 444 511 34,000  Level Denver Center
Sat 20:33:13 41.2950 -100.0489 266° West 444 511 34,000  Level Denver Center
Sat 20:34:15 41.2831 -100.2583 266° West 446 513 34,000  Level Denver Center
Sat 20:35:16 41.2722 -100.4417 266° West 448 516 34,000  Level Denver Center
Sat 20:36:18 41.2636 -100.5989 266° West 449 517 34,000  Level Denver Center
Sat 20:37:19 41.2519 -100.7831 265° West 450 518 34,000  Level Denver Center
Sat 20:38:20 41.2431 -100.9408 266° West 451 519 34,000  Level Denver Center
Sat 20:39:22 41.2325 -101.0964 265° West 447 514 34,000  Level Denver Center
Sat 20:40:47 41.2194 -101.3019 265° West 441 507 34,000  Level Denver Center
Sat 20:41:49 41.2047 -101.5061 265° West 438 504 34,000  Level Denver Center
Sat 20:42:50 41.1953 -101.6578 265° West 433 498 34,000  Level Denver Center
Sat 20:43:51 41.1833 -101.8339 265° West 430 495 34,000  Level Denver Center
Sat 20:44:53 41.1725 -101.9844 265° West 430 495 34,000  Level Denver Center
Sat 20:45:54 41.1617 -102.1331 265° West 425 489 34,000  Level Denver Center
Sat 20:46:55 41.1483 -102.3069 264° West 425 489 34,000  Level Denver Center
Sat 20:47:57 41.1378 -102.4536 265° West 419 482 34,000  Level Denver Center
Sat 20:49:10 41.1242 -102.6247 264° West 418 481 34,000  Level Denver Center
Sat 20:50:23 41.1117 -102.7958 265° West 419 482 34,000  Level Denver Center
Sat 20:51:25 41.0975 -102.9894 265° West 417 480 34,000  Level Denver Center
Sat 20:53:27 41.1197 -103.3081 275° West 414 476 34,000  Level Denver Center
Sat 20:54:28 41.1275 -103.4314 275° West 419 482 34,000  Level Denver Center
Sat 20:55:30 41.1389 -103.5994 275° West 413 475 34,000  Level Denver Center
Sat 20:57:36 41.1597 -103.9411 275° West 415 478 34,000  Level Salt Lake Center
Sat 20:58:33 41.1708 -104.0867 276° West 415 478 34,000  Level Denver Center
Sat 20:59:35 41.1794 -104.2322 275° West 414 476 34,000  Level Denver Center
Sat 21:00:36 41.1881 -104.3814 274° West 418 481 34,000  Level Denver Center
Sat 21:01:37 41.1981 -104.5525 274° West 418 481 34,000  Level Denver Center
Sat 21:02:38 41.2069 -104.7017 275° West 421 484 34,000  Level Denver Center
Sat 21:03:40 41.1950 -104.8517 264° West 427 491 34,000  Level Denver Center
Sat 21:04:41 41.1597 -105.0183 254° West 422 486 34,000  Level Denver Center
Sat 21:05:42 41.1300 -105.1628 255° West 423 487 34,000  Level Denver Center
Sat 21:06:43 41.0956 -105.3269 254° West 416 479 34,000  Level Denver Center
Sat 21:07:45 41.0658 -105.4656 254° West 411 473 34,000  Level Denver Center
Sat 21:08:46 41.0364 -105.6036 254° West 408 470 34,000  Level Denver Center
Sat 21:09:47 41.0053 -105.7444 254° West 400 460 34,000  Level Denver Center
Sat 21:10:48 40.9744 -105.8850 254° West 397 457 34,000  Level Denver Center
Sat 21:11:50 40.9383 -106.0506 254° West 397 457 34,000  Level Denver Center
Sat 21:12:51 40.9078 -106.1886 254° West 399 459 34,000  Level Denver Center
Sat 21:14:04 40.8731 -106.3431 253° West 395 455 34,000  Level Denver Center
Sat 21:15:06 40.8381 -106.4969 253° West 392 451 34,000  Level Denver Center
Sat 21:16:06 40.8131 -106.6086 254° West 395 455 34,000  Level Denver Center
Sat 21:17:08 40.7744 -106.7853 254° West 394 453 34,000  Level Denver Center
Sat 21:18:09 40.7425 -106.9217 253° West 394 453 34,000  Level Denver Center
Sat 21:19:11 40.7111 -107.0594 253° West 395 455 34,000  Level Denver Center
Sat 21:20:12 40.6800 -107.1947 253° West 390 449 34,000  Level Denver Center
Sat 21:21:13 40.6486 -107.3314 253° West 389 448 34,000  Level Denver Center
Sat 21:22:14 40.6131 -107.4828 253° West 389 448 34,000  Level Denver Center
Sat 21:23:16 40.5822 -107.6106 252° West 387 445 34,000  Level Denver Center
Sat 21:24:17 40.5522 -107.7378 253° West 384 442 34,000  Level Denver Center
Sat 21:25:18 40.5161 -107.8869 252° West 384 442 34,000  Level Denver Center
Sat 21:26:19 40.4869 -108.0158 253° West 385 443 34,000  Level Denver Center
Sat 21:27:04 40.4603 -108.1253 252° West 385 443 34,000  Level Salt Lake Center
Sat 21:28:05 40.4292 -108.2519 252° West 383 441 34,000  Level Salt Lake Center
Sat 21:29:06 40.3981 -108.3794 252° West 381 438 34,000  Level Salt Lake Center
Sat 21:29:23 40.3883 -108.4192 252° West 386 444 34,000  Level Denver Center
Sat 21:30:37 40.3525 -108.5678 252° West 385 443 34,000  Level Denver Center
Sat 21:31:08 40.3303 -108.6567 252° West 385 443 34,000  Level Salt Lake Center
Sat 21:32:09 40.2950 -108.8006 252° West 384 442 34,000  Level Salt Lake Center
Sat 21:33:10 40.2636 -108.9281 252° West 386 444 34,000  Level Salt Lake Center
Sat 21:33:41 40.2478 -108.9903 252° West 386 444 34,000  Level Denver Center
Sat 21:34:42 40.2100 -109.1381 252° West 386 444 34,000  Level Denver Center
Sat 21:35:12 40.1939 -109.2019 252° West 385 443 34,000  Level Salt Lake Center
Sat 21:36:13 40.1622 -109.3294 252° West 385 443 34,000  Level Salt Lake Center
Sat 21:37:14 40.1228 -109.4794 251° West 392 451 34,000  Level Salt Lake Center
Sat 21:37:59 40.1011 -109.5653 252° West 391 450 34,000  Level Denver Center
Sat 21:39:01 40.0628 -109.7133 251° West 386 444 34,000  Level Denver Center
Sat 21:39:16 40.0583 -109.7342 254° West 385 443 34,000  Level Salt Lake Center
Sat 21:40:17 40.0197 -109.8792 251° West 381 438 34,000  Level Salt Lake Center
Sat 21:41:18 39.9872 -110.0044 251° West 383 441 34,000  Level Salt Lake Center
Sat 21:42:19 39.9492 -110.1514 251° West 384 442 34,000  Level Salt Lake Center
Sat 21:43:20 39.9169 -110.2789 252° West 387 445 34,000  Level Salt Lake Center
Sat 21:44:21 39.8822 -110.4044 250° West 387 445 34,000  Level Salt Lake Center
Sat 21:45:22 39.8439 -110.5525 251° West 387 445 34,000  Level Salt Lake Center
Sat 21:46:23 39.8103 -110.6792 251° West 387 445 34,000  Level Salt Lake Center
Sat 21:47:24 39.7772 -110.8050 251° West 384 442 34,000  Level Salt Lake Center
Sat 21:48:25 39.7367 -110.9517 250° West 387 445 34,000  Level Salt Lake Center
Sat 21:49:26 39.7031 -111.0775 251° West 386 444 34,000  Level Salt Lake Center
Sat 21:50:27 39.6692 -111.2019 251° West 383 441 34,000  Level Salt Lake Center
Sat 21:51:28 39.6289 -111.3517 251° West 383 441 34,000  Level Salt Lake Center
Sat 21:52:29 39.5914 -111.4825 250° West 386 444 34,000  Level Salt Lake Center
Sat 21:53:30 39.5544 -111.6186 251° West 398 458 34,000  Level Salt Lake Center
Sat 21:54:31 39.5164 -111.7556 250° West 402 463 34,000  Level Salt Lake Center
Sat 21:55:32 39.4764 -111.8936 249° West 408 470 34,000  Level Salt Lake Center
Sat 21:56:33 39.4389 -112.0308 251° West 407 468 34,000  Level Salt Lake Center
Sat 21:57:35 39.3994 -112.1686 250° West 407 468 34,000  Level Salt Lake Center
Sat 21:58:36 39.3636 -112.3086 252° West 409 471 34,000  Level Salt Lake Center
Sat 21:59:37 39.3333 -112.4494 255° West 409 471 34,000  Level Salt Lake Center
Sat 22:00:38 39.3014 -112.5894 254° West 407 468 34,000  Level Salt Lake Center
Sat 22:01:39 39.2669 -112.7386 253° West 404 465 34,000  Level Salt Lake Center
Sat 22:02:40 39.2358 -112.8744 254° West 400 460 34,000  Level Salt Lake Center
Sat 22:03:41 39.2047 -113.0136 254° West 405 466 34,000  Level Salt Lake Center
Sat 22:04:42 39.1725 -113.1508 253° West 404 465 34,000  Level Salt Lake Center
Sat 22:05:43 39.1408 -113.2900 254° West 404 465 34,000  Level Salt Lake Center
Sat 22:06:44 39.1019 -113.4589 254° West 410 472 34,000  Level Salt Lake Center
Sat 22:07:45 39.0692 -113.6011 254° West 415 478 34,000  Level Salt Lake Center
Sat 22:08:46 39.0364 -113.7422 253° West 415 478 34,000  Level Salt Lake Center
Sat 22:09:47 39.0019 -113.8853 253° West 420 483 34,000  Level Salt Lake Center
Sat 22:10:48 38.9681 -114.0281 253° West 420 483 34,000  Level Salt Lake Center
Sat 22:11:49 38.9336 -114.1736 253° West 426 490 34,000  Level Salt Lake Center
Sat 22:12:50 38.8983 -114.3158 252° West 422 486 34,000  Level Salt Lake Center
Sat 22:13:51 38.8647 -114.4608 253° West 425 489 34,000  Level Salt Lake Center
Sat 22:14:52 38.8292 -114.6039 252° West 423 487 34,000  Level Salt Lake Center
Sat 22:15:53 38.7947 -114.7461 253° West 422 486 34,000  Level Salt Lake Center
Sat 22:16:54 38.7569 -114.8897 251° West 424 488 34,000  Level Salt Lake Center
Sat 22:17:55 38.7147 -115.0606 252° West 425 489 34,000  Level Salt Lake Center
Sat 22:18:56 38.6797 -115.2000 252° West 420 483 34,000  Level Salt Lake Center
Sat 22:19:57 38.6453 -115.3386 252° West 414 476 34,000  Level Salt Lake Center
Sat 22:20:58 38.6100 -115.4797 252° West 410 472 34,000  Level Salt Lake Center
Sat 22:21:59 38.5747 -115.6183 252° West 410 472 34,000  Level Salt Lake Center
Sat 22:23:00 38.5400 -115.7578 252° West 412 474 34,000  Level Salt Lake Center
Sat 22:24:01 38.5036 -115.8986 252° West 416 479 34,000  Level Salt Lake Center
Sat 22:25:02 38.4675 -116.0389 252° West 417 480 34,000  Level Salt Lake Center
Sat 22:25:49 38.4392 -116.1525 252° West 420 483 34,000  Level Oakland Center
Sat 22:26:50 38.4014 -116.2931 251° West 420 483 34,000  Level Oakland Center
Sat 22:27:50 38.3644 -116.4353 252° West 422 486 34,000  Level Oakland Center
Sat 22:28:51 38.3264 -116.5778 251° West 423 487 34,000  Level Oakland Center
Sat 22:29:52 38.2897 -116.7206 252° West 424 488 34,000  Level Oakland Center
Sat 22:30:52 38.2514 -116.8625 251° West 425 489 34,000  Level Oakland Center
Sat 22:31:08 38.2436 -116.8911 251° West 425 489 34,000  Level Salt Lake Center
Sat 22:32:09 38.2064 -117.0306 251° West 420 483 34,000  Level Salt Lake Center
Sat 22:32:54 38.1744 -117.1508 251° West 425 489 34,000  Level Oakland Center
Sat 22:33:54 38.1364 -117.2933 251° West 426 490 34,000  Level Oakland Center
Sat 22:34:55 38.0936 -117.4464 250° West 430 495 34,000  Level Oakland Center
Sat 22:35:56 38.0539 -117.5886 251° West 429 494 34,000  Level Oakland Center
Sat 22:36:57 38.0150 -117.7311 251° West 428 493 34,000  Level Oakland Center
Sat 22:37:57 37.9917 -117.8789 259° West 434 499 34,000  Level Oakland Center
Sat 22:38:58 37.9778 -118.0272 263° West 425 489 34,000  Level Oakland Center
Sat 22:39:59 37.9617 -118.1750 262° West 424 488 34,000  Level Oakland Center
Sat 22:41:00 37.9453 -118.3228 262° West 424 488 34,000  Level Oakland Center
Sat 22:42:00 37.9286 -118.4711 262° West 425 489 34,000  Level Oakland Center
Sat 22:43:01 37.9125 -118.6186 262° West 424 488 34,000  Level Oakland Center
Sat 22:44:02 37.8961 -118.7650 262° West 422 486 34,000  Level Oakland Center
Sat 22:45:02 37.8797 -118.9136 262° West 424 488 34,000  Level Oakland Center
Sat 22:46:03 37.8594 -119.0833 261° West 430 495 34,000  Level Oakland Center
Sat 22:47:04 37.8417 -119.2342 262° West 433 498 34,000  Level Oakland Center
Sat 22:48:04 37.8244 -119.3847 262° West 433 498 34,000  Level Oakland Center
Sat 22:49:05 37.8053 -119.5367 261° West 435 501 34,000  Level Oakland Center
Sat 22:50:06 37.7875 -119.6883 262° West 436 502 34,000  Level Oakland Center
Sat 22:51:07 37.7700 -119.8386 262° West 433 498 34,000  Level Oakland Center
Sat 22:52:07 37.7511 -119.9889 261° West 432 497 34,000  Level Oakland Center
Sat 22:53:08 37.7322 -120.1392 261° West 433 498 34,000  Level Oakland Center
Sat 22:54:09 37.7144 -120.2881 261° West 430 495 34,000 -738 Level Oakland Center
Sat 22:55:10 37.6967 -120.4367 261° West 429 494 32,500 -2,479 Descending Oakland Center
Sat 22:56:10 37.6750 -120.5894 260° West 436 502 29,000 -3,719 Descending Oakland Center
Sat 22:57:11 37.6553 -120.7444 261° West 443 510 25,000 -3,049 Descending Oakland Center
Sat 22:58:12 37.6356 -120.8981 261° West 444 511 22,800 -2,705 Descending Oakland Center
Sat 22:59:13 37.6156 -121.0456 260° West 435 501 19,500 -3,273 Descending Oakland Center
Sat 23:00:13 37.6014 -121.1772 262° West 408 470 16,200 -3,280 Descending Oakland Center
Sat 23:00:28 37.6000 -121.2333 268° West 407 468 15,400 -2,720 Descending Northern Cal TRACON
Sat 23:01:28 37.5833 -121.3667 261° West 392 451 12,800 -2,053 Descending Northern Cal TRACON
Sat 23:02:22 37.5667 -121.4833 260° West 362 417 11,500 -842 Descending Northern Cal TRACON
Sat 23:03:22 37.5500 -121.5833 258° West 287 330 11,200 -800 Descending Northern Cal TRACON
Sat 23:04:22 37.5500 -121.6833 270° West 274 315 9,900 -952 Descending Northern Cal TRACON
Sat 23:05:28 37.5167 -121.7667 243° Southwest 247 284 9,200 -810 Descending Northern Cal TRACON
Sat 23:06:28 37.5167 -121.8500 270° West 219 252 8,200 -600 Descending Northern Cal TRACON
Sat 23:07:28 37.5000 -121.9333 256° West 226 260 8,000 -667 Descending Northern Cal TRACON
Sat 23:08:34 37.4667 -122.0000 238° Southwest 210 242 6,800 -950 Descending Northern Cal TRACON
Sat 23:09:28 37.4333 -122.0500 230° Southwest 191 220 6,100 -947 Descending Northern Cal TRACON
Sat 23:10:28 37.4500 -122.1000 293° West 192 221 5,000 -1,050 Descending Northern Cal TRACON
Sat 23:11:28 37.5000 -122.1333 332° Northwest 194 223 4,000 -1,000 Descending Northern Cal TRACON

Login

Don't have an account? Register now (free) for customized features, flight alerts, and more!